sensor_id;sensor_type;location;lat;lon;timestamp;P1;durP1;ratioP1;P2;durP2;ratioP2
74044;SDS011;62389;51.412;5.436;2022-10-19T00:01:06;8.02;;;3.50;;
74044;SDS011;62389;51.412;5.436;2022-10-19T00:03:34;11.60;;;4.72;;
74044;SDS011;62389;51.412;5.436;2022-10-19T00:06:08;10.38;;;4.32;;
74044;SDS011;62389;51.412;5.436;2022-10-19T00:08:35;8.43;;;3.42;;
74044;SDS011;62389;51.412;5.436;2022-10-19T00:11:00;5.30;;;3.00;;
74044;SDS011;62389;51.412;5.436;2022-10-19T00:13:26;7.53;;;3.40;;
74044;SDS011;62389;51.412;5.436;2022-10-19T00:15:51;13.13;;;4.10;;
74044;SDS011;62389;51.412;5.436;2022-10-19T00:18:17;9.20;;;4.25;;
74044;SDS011;62389;51.412;5.436;2022-10-19T00:20:42;6.55;;;2.97;;
74044;SDS011;62389;51.412;5.436;2022-10-19T00:23:07;7.63;;;3.28;;
74044;SDS011;62389;51.412;5.436;2022-10-19T00:25:33;11.20;;;3.67;;
74044;SDS011;62389;51.412;5.436;2022-10-19T00:27:58;8.18;;;3.50;;
74044;SDS011;62389;51.412;5.436;2022-10-19T00:30:25;9.30;;;3.30;;
74044;SDS011;62389;51.412;5.436;2022-10-19T00:32:50;12.23;;;3.42;;
74044;SDS011;62389;51.412;5.436;2022-10-19T00:35:15;8.32;;;3.67;;
74044;SDS011;62389;51.412;5.436;2022-10-19T00:37:41;7.60;;;3.60;;
74044;SDS011;62389;51.412;5.436;2022-10-19T00:40:06;11.65;;;3.55;;
74044;SDS011;62389;51.412;5.436;2022-10-19T00:42:32;6.78;;;3.13;;
74044;SDS011;62389;51.412;5.436;2022-10-19T00:44:59;10.40;;;4.03;;
74044;SDS011;62389;51.412;5.436;2022-10-19T00:47:29;7.20;;;3.65;;
74044;SDS011;62389;51.412;5.436;2022-10-19T00:49:55;6.00;;;2.90;;
74044;SDS011;62389;51.412;5.436;2022-10-19T00:52:23;9.27;;;3.45;;
74044;SDS011;62389;51.412;5.436;2022-10-19T00:54:50;7.60;;;3.05;;
74044;SDS011;62389;51.412;5.436;2022-10-19T00:57:16;11.05;;;3.67;;
74044;SDS011;62389;51.412;5.436;2022-10-19T00:59:42;8.68;;;3.10;;
74044;SDS011;62389;51.412;5.436;2022-10-19T01:04:35;6.78;;;2.95;;
74044;SDS011;62389;51.412;5.436;2022-10-19T01:07:04;11.00;;;3.05;;
74044;SDS011;62389;51.412;5.436;2022-10-19T01:09:31;6.68;;;2.92;;
74044;SDS011;62389;51.412;5.436;2022-10-19T01:12:01;7.40;;;3.20;;
74044;SDS011;62389;51.412;5.436;2022-10-19T01:14:48;10.55;;;3.03;;
74044;SDS011;62389;51.412;5.436;2022-10-19T01:20:56;8.80;;;3.90;;
74044;SDS011;62389;51.412;5.436;2022-10-19T01:23:54;8.95;;;3.45;;
74044;SDS011;62389;51.412;5.436;2022-10-19T01:32:05;12.35;;;3.67;;
74044;SDS011;62389;51.412;5.436;2022-10-19T01:34:46;8.02;;;3.78;;
74044;SDS011;62389;51.412;5.436;2022-10-19T01:37:45;6.95;;;3.60;;
74044;SDS011;62389;51.412;5.436;2022-10-19T01:45:35;6.90;;;3.30;;
74044;SDS011;62389;51.412;5.436;2022-10-19T01:48:06;7.55;;;3.42;;
74044;SDS011;62389;51.412;5.436;2022-10-19T01:50:39;9.90;;;4.03;;
74044;SDS011;62389;51.412;5.436;2022-10-19T01:53:11;9.40;;;3.80;;
74044;SDS011;62389;51.412;5.436;2022-10-19T01:55:39;7.82;;;4.22;;
74044;SDS011;62389;51.412;5.436;2022-10-19T01:58:07;10.77;;;3.72;;
74044;SDS011;62389;51.412;5.436;2022-10-19T02:00:37;8.18;;;3.80;;
74044;SDS011;62389;51.412;5.436;2022-10-19T02:03:07;9.20;;;3.65;;
74044;SDS011;62389;51.412;5.436;2022-10-19T02:05:34;8.30;;;3.70;;
74044;SDS011;62389;51.412;5.436;2022-10-19T02:08:03;8.43;;;3.38;;
74044;SDS011;62389;51.412;5.436;2022-10-19T02:10:36;8.57;;;3.55;;
74044;SDS011;62389;51.412;5.436;2022-10-19T02:13:03;7.43;;;3.72;;
74044;SDS011;62389;51.412;5.436;2022-10-19T02:15:31;11.50;;;3.28;;
74044;SDS011;62389;51.412;5.436;2022-10-19T02:18:02;6.60;;;3.13;;
74044;SDS011;62389;51.412;5.436;2022-10-19T02:20:28;7.20;;;3.10;;
74044;SDS011;62389;51.412;5.436;2022-10-19T02:22:54;7.15;;;3.45;;
74044;SDS011;62389;51.412;5.436;2022-10-19T02:25:20;10.65;;;3.55;;
74044;SDS011;62389;51.412;5.436;2022-10-19T02:27:47;9.23;;;4.03;;
74044;SDS011;62389;51.412;5.436;2022-10-19T02:30:13;8.45;;;3.50;;
74044;SDS011;62389;51.412;5.436;2022-10-19T02:32:41;5.38;;;3.25;;
74044;SDS011;62389;51.412;5.436;2022-10-19T02:35:07;6.18;;;3.53;;
74044;SDS011;62389;51.412;5.436;2022-10-19T02:37:35;12.93;;;3.65;;
74044;SDS011;62389;51.412;5.436;2022-10-19T02:40:01;6.32;;;3.42;;
74044;SDS011;62389;51.412;5.436;2022-10-19T02:42:27;10.77;;;4.00;;
74044;SDS011;62389;51.412;5.436;2022-10-19T02:45:11;7.70;;;3.60;;
74044;SDS011;62389;51.412;5.436;2022-10-19T02:47:42;7.85;;;3.80;;
74044;SDS011;62389;51.412;5.436;2022-10-19T02:50:12;8.23;;;3.72;;
74044;SDS011;62389;51.412;5.436;2022-10-19T02:52:38;5.68;;;3.65;;
74044;SDS011;62389;51.412;5.436;2022-10-19T02:55:05;7.50;;;3.65;;
74044;SDS011;62389;51.412;5.436;2022-10-19T02:59:57;8.25;;;3.30;;
74044;SDS011;62389;51.412;5.436;2022-10-19T03:02:23;7.00;;;3.67;;
74044;SDS011;62389;51.412;5.436;2022-10-19T03:04:49;5.88;;;3.60;;
74044;SDS011;62389;51.412;5.436;2022-10-19T03:07:15;8.98;;;3.80;;
74044;SDS011;62389;51.412;5.436;2022-10-19T03:09:43;9.38;;;4.00;;
74044;SDS011;62389;51.412;5.436;2022-10-19T03:12:09;7.28;;;3.45;;
74044;SDS011;62389;51.412;5.436;2022-10-19T03:14:35;8.90;;;3.85;;
74044;SDS011;62389;51.412;5.436;2022-10-19T03:17:01;5.68;;;3.22;;
74044;SDS011;62389;51.412;5.436;2022-10-19T03:19:26;8.15;;;3.78;;
74044;SDS011;62389;51.412;5.436;2022-10-19T03:21:52;7.55;;;3.88;;
74044;SDS011;62389;51.412;5.436;2022-10-19T03:24:17;5.35;;;3.50;;
74044;SDS011;62389;51.412;5.436;2022-10-19T03:26:42;10.23;;;4.40;;
74044;SDS011;62389;51.412;5.436;2022-10-19T03:29:10;7.07;;;3.67;;
74044;SDS011;62389;51.412;5.436;2022-10-19T03:31:35;10.63;;;4.00;;
74044;SDS011;62389;51.412;5.436;2022-10-19T03:34:01;9.65;;;3.75;;
74044;SDS011;62389;51.412;5.436;2022-10-19T03:36:30;11.05;;;3.95;;
74044;SDS011;62389;51.412;5.436;2022-10-19T03:38:58;6.88;;;4.13;;
74044;SDS011;62389;51.412;5.436;2022-10-19T03:41:29;10.15;;;4.15;;
74044;SDS011;62389;51.412;5.436;2022-10-19T03:43:56;10.90;;;4.95;;
74044;SDS011;62389;51.412;5.436;2022-10-19T03:46:22;10.02;;;3.90;;
74044;SDS011;62389;51.412;5.436;2022-10-19T03:48:48;12.32;;;5.00;;
74044;SDS011;62389;51.412;5.436;2022-10-19T03:51:15;9.50;;;4.63;;
74044;SDS011;62389;51.412;5.436;2022-10-19T03:53:43;10.63;;;4.82;;
74044;SDS011;62389;51.412;5.436;2022-10-19T03:56:10;10.60;;;5.13;;
74044;SDS011;62389;51.412;5.436;2022-10-19T03:58:38;10.32;;;4.82;;
74044;SDS011;62389;51.412;5.436;2022-10-19T04:01:23;12.45;;;4.97;;
74044;SDS011;62389;51.412;5.436;2022-10-19T04:03:57;11.63;;;4.13;;
74044;SDS011;62389;51.412;5.436;2022-10-19T04:06:25;10.93;;;4.57;;
74044;SDS011;62389;51.412;5.436;2022-10-19T04:08:52;7.60;;;4.32;;
74044;SDS011;62389;51.412;5.436;2022-10-19T04:11:20;9.80;;;5.07;;
74044;SDS011;62389;51.412;5.436;2022-10-19T04:13:48;12.40;;;5.25;;
74044;SDS011;62389;51.412;5.436;2022-10-19T04:16:14;9.45;;;4.45;;
74044;SDS011;62389;51.412;5.436;2022-10-19T04:18:40;9.90;;;5.38;;
74044;SDS011;62389;51.412;5.436;2022-10-19T04:21:05;11.30;;;4.32;;
74044;SDS011;62389;51.412;5.436;2022-10-19T04:23:32;8.95;;;4.40;;
74044;SDS011;62389;51.412;5.436;2022-10-19T04:26:03;7.78;;;4.07;;
74044;SDS011;62389;51.412;5.436;2022-10-19T04:28:30;9.65;;;5.07;;
74044;SDS011;62389;51.412;5.436;2022-10-19T04:30:56;10.93;;;5.15;;
74044;SDS011;62389;51.412;5.436;2022-10-19T04:33:25;13.23;;;4.55;;
74044;SDS011;62389;51.412;5.436;2022-10-19T04:35:56;9.27;;;4.45;;
74044;SDS011;62389;51.412;5.436;2022-10-19T04:38:22;8.75;;;4.18;;
74044;SDS011;62389;51.412;5.436;2022-10-19T04:40:47;9.20;;;5.30;;
74044;SDS011;62389;51.412;5.436;2022-10-19T04:43:12;11.52;;;4.63;;
74044;SDS011;62389;51.412;5.436;2022-10-19T04:45:38;11.35;;;5.07;;
74044;SDS011;62389;51.412;5.436;2022-10-19T04:48:03;9.68;;;4.60;;
74044;SDS011;62389;51.412;5.436;2022-10-19T04:50:29;9.63;;;4.20;;
74044;SDS011;62389;51.412;5.436;2022-10-19T04:52:54;8.20;;;4.50;;
74044;SDS011;62389;51.412;5.436;2022-10-19T04:55:20;10.82;;;4.22;;
74044;SDS011;62389;51.412;5.436;2022-10-19T04:57:45;9.20;;;4.93;;
74044;SDS011;62389;51.412;5.436;2022-10-19T05:00:11;9.85;;;5.22;;
74044;SDS011;62389;51.412;5.436;2022-10-19T05:02:40;12.93;;;5.03;;
74044;SDS011;62389;51.412;5.436;2022-10-19T05:05:07;8.07;;;4.80;;
74044;SDS011;62389;51.412;5.436;2022-10-19T05:07:32;9.48;;;4.50;;
74044;SDS011;62389;51.412;5.436;2022-10-19T05:09:57;9.75;;;4.75;;
74044;SDS011;62389;51.412;5.436;2022-10-19T05:12:23;8.82;;;4.53;;
74044;SDS011;62389;51.412;5.436;2022-10-19T05:14:48;6.97;;;4.03;;
74044;SDS011;62389;51.412;5.436;2022-10-19T05:17:13;9.20;;;5.05;;
74044;SDS011;62389;51.412;5.436;2022-10-19T05:19:39;9.00;;;4.78;;
74044;SDS011;62389;51.412;5.436;2022-10-19T05:22:04;9.50;;;4.43;;
74044;SDS011;62389;51.412;5.436;2022-10-19T05:24:29;8.30;;;4.80;;
74044;SDS011;62389;51.412;5.436;2022-10-19T05:26:56;8.30;;;4.53;;
74044;SDS011;62389;51.412;5.436;2022-10-19T05:29:21;12.15;;;5.63;;
74044;SDS011;62389;51.412;5.436;2022-10-19T05:31:48;10.30;;;5.00;;
74044;SDS011;62389;51.412;5.436;2022-10-19T05:34:14;9.18;;;4.35;;
74044;SDS011;62389;51.412;5.436;2022-10-19T05:36:39;10.55;;;5.60;;
74044;SDS011;62389;51.412;5.436;2022-10-19T05:41:33;11.82;;;4.72;;
74044;SDS011;62389;51.412;5.436;2022-10-19T05:43:59;13.30;;;4.80;;
74044;SDS011;62389;51.412;5.436;2022-10-19T05:46:26;10.25;;;4.68;;
74044;SDS011;62389;51.412;5.436;2022-10-19T05:48:54;12.70;;;5.10;;
74044;SDS011;62389;51.412;5.436;2022-10-19T05:53:46;9.43;;;4.30;;
74044;SDS011;62389;51.412;5.436;2022-10-19T05:56:13;12.98;;;4.68;;
74044;SDS011;62389;51.412;5.436;2022-10-19T05:58:43;8.98;;;4.45;;
74044;SDS011;62389;51.412;5.436;2022-10-19T06:01:09;9.48;;;4.50;;
74044;SDS011;62389;51.412;5.436;2022-10-19T06:03:34;11.45;;;5.00;;
74044;SDS011;62389;51.412;5.436;2022-10-19T06:06:03;7.22;;;4.25;;
74044;SDS011;62389;51.412;5.436;2022-10-19T06:08:30;10.52;;;4.72;;
74044;SDS011;62389;51.412;5.436;2022-10-19T06:11:08;10.80;;;4.63;;
74044;SDS011;62389;51.412;5.436;2022-10-19T06:13:39;8.13;;;4.22;;
74044;SDS011;62389;51.412;5.436;2022-10-19T06:16:06;10.35;;;4.25;;
74044;SDS011;62389;51.412;5.436;2022-10-19T06:18:33;9.32;;;4.15;;
74044;SDS011;62389;51.412;5.436;2022-10-19T06:21:02;8.00;;;4.15;;
74044;SDS011;62389;51.412;5.436;2022-10-19T06:23:29;7.18;;;4.30;;
74044;SDS011;62389;51.412;5.436;2022-10-19T06:25:55;7.57;;;4.32;;
74044;SDS011;62389;51.412;5.436;2022-10-19T06:28:21;9.77;;;4.57;;
74044;SDS011;62389;51.412;5.436;2022-10-19T06:30:46;11.30;;;4.65;;
74044;SDS011;62389;51.412;5.436;2022-10-19T06:33:11;12.30;;;4.40;;
74044;SDS011;62389;51.412;5.436;2022-10-19T06:35:37;10.25;;;3.90;;
74044;SDS011;62389;51.412;5.436;2022-10-19T06:38:02;14.98;;;5.05;;
74044;SDS011;62389;51.412;5.436;2022-10-19T06:40:28;8.55;;;4.72;;
74044;SDS011;62389;51.412;5.436;2022-10-19T06:42:54;9.10;;;5.03;;
74044;SDS011;62389;51.412;5.436;2022-10-19T06:45:19;9.70;;;4.32;;
74044;SDS011;62389;51.412;5.436;2022-10-19T06:47:45;10.50;;;4.15;;
74044;SDS011;62389;51.412;5.436;2022-10-19T06:50:10;10.02;;;4.30;;
74044;SDS011;62389;51.412;5.436;2022-10-19T06:52:36;13.65;;;5.05;;
74044;SDS011;62389;51.412;5.436;2022-10-19T06:55:02;9.88;;;4.90;;
74044;SDS011;62389;51.412;5.436;2022-10-19T06:57:27;11.07;;;5.22;;
74044;SDS011;62389;51.412;5.436;2022-10-19T06:59:53;8.98;;;4.75;;
74044;SDS011;62389;51.412;5.436;2022-10-19T07:02:19;8.80;;;4.72;;
74044;SDS011;62389;51.412;5.436;2022-10-19T07:04:45;11.98;;;5.10;;
74044;SDS011;62389;51.412;5.436;2022-10-19T07:07:10;9.60;;;4.32;;
74044;SDS011;62389;51.412;5.436;2022-10-19T07:09:36;11.38;;;4.47;;
74044;SDS011;62389;51.412;5.436;2022-10-19T07:12:01;13.50;;;4.65;;
74044;SDS011;62389;51.412;5.436;2022-10-19T07:14:26;15.95;;;5.32;;
74044;SDS011;62389;51.412;5.436;2022-10-19T07:16:55;14.50;;;5.40;;
74044;SDS011;62389;51.412;5.436;2022-10-19T07:19:21;11.73;;;4.82;;
74044;SDS011;62389;51.412;5.436;2022-10-19T07:21:49;9.75;;;4.40;;
74044;SDS011;62389;51.412;5.436;2022-10-19T07:24:15;9.20;;;4.85;;
74044;SDS011;62389;51.412;5.436;2022-10-19T07:26:41;10.60;;;4.50;;
74044;SDS011;62389;51.412;5.436;2022-10-19T07:29:06;13.38;;;5.22;;
74044;SDS011;62389;51.412;5.436;2022-10-19T07:31:31;12.10;;;5.32;;
74044;SDS011;62389;51.412;5.436;2022-10-19T07:33:58;10.77;;;4.65;;
74044;SDS011;62389;51.412;5.436;2022-10-19T07:36:26;9.95;;;4.75;;
74044;SDS011;62389;51.412;5.436;2022-10-19T07:38:52;12.20;;;5.05;;
74044;SDS011;62389;51.412;5.436;2022-10-19T07:41:19;8.45;;;3.90;;
74044;SDS011;62389;51.412;5.436;2022-10-19T07:43:46;8.63;;;4.38;;
74044;SDS011;62389;51.412;5.436;2022-10-19T07:46:14;8.32;;;4.03;;
74044;SDS011;62389;51.412;5.436;2022-10-19T07:48:41;13.75;;;4.25;;
74044;SDS011;62389;51.412;5.436;2022-10-19T07:51:08;10.68;;;4.50;;
74044;SDS011;62389;51.412;5.436;2022-10-19T07:53:34;6.90;;;4.25;;
74044;SDS011;62389;51.412;5.436;2022-10-19T07:56:04;9.65;;;4.40;;
74044;SDS011;62389;51.412;5.436;2022-10-19T07:58:34;6.55;;;4.10;;
74044;SDS011;62389;51.412;5.436;2022-10-19T08:01:01;8.20;;;3.83;;
74044;SDS011;62389;51.412;5.436;2022-10-19T08:03:27;9.20;;;4.50;;
74044;SDS011;62389;51.412;5.436;2022-10-19T08:05:52;11.98;;;4.75;;
74044;SDS011;62389;51.412;5.436;2022-10-19T08:08:18;7.82;;;3.85;;
74044;SDS011;62389;51.412;5.436;2022-10-19T08:10:43;12.10;;;4.13;;
74044;SDS011;62389;51.412;5.436;2022-10-19T08:13:08;46.90;;;6.50;;
74044;SDS011;62389;51.412;5.436;2022-10-19T08:15:34;7.22;;;3.50;;
74044;SDS011;62389;51.412;5.436;2022-10-19T08:17:59;8.88;;;3.05;;
74044;SDS011;62389;51.412;5.436;2022-10-19T08:20:25;9.60;;;2.83;;
74044;SDS011;62389;51.412;5.436;2022-10-19T08:22:50;5.43;;;2.72;;
74044;SDS011;62389;51.412;5.436;2022-10-19T08:25:15;6.10;;;2.70;;
74044;SDS011;62389;51.412;5.436;2022-10-19T08:27:41;8.45;;;2.90;;
74044;SDS011;62389;51.412;5.436;2022-10-19T08:30:06;6.20;;;2.95;;
74044;SDS011;62389;51.412;5.436;2022-10-19T08:32:32;9.55;;;3.70;;
74044;SDS011;62389;51.412;5.436;2022-10-19T08:34:58;7.25;;;2.65;;
74044;SDS011;62389;51.412;5.436;2022-10-19T08:37:23;8.10;;;2.75;;
74044;SDS011;62389;51.412;5.436;2022-10-19T08:39:48;7.05;;;3.20;;
74044;SDS011;62389;51.412;5.436;2022-10-19T08:42:15;7.43;;;3.03;;
74044;SDS011;62389;51.412;5.436;2022-10-19T08:50:37;5.45;;;2.40;;
74044;SDS011;62389;51.412;5.436;2022-10-19T08:53:11;6.78;;;2.78;;
74044;SDS011;62389;51.412;5.436;2022-10-19T08:55:43;6.32;;;2.53;;
74044;SDS011;62389;51.412;5.436;2022-10-19T08:58:28;9.73;;;2.75;;
74044;SDS011;62389;51.412;5.436;2022-10-19T09:01:06;7.47;;;2.95;;
74044;SDS011;62389;51.412;5.436;2022-10-19T09:03:47;6.82;;;2.97;;
74044;SDS011;62389;51.412;5.436;2022-10-19T09:06:22;6.20;;;2.50;;
74044;SDS011;62389;51.412;5.436;2022-10-19T09:08:54;8.50;;;2.97;;
74044;SDS011;62389;51.412;5.436;2022-10-19T09:11:22;7.05;;;2.80;;
74044;SDS011;62389;51.412;5.436;2022-10-19T09:14:04;7.80;;;2.63;;
74044;SDS011;62389;51.412;5.436;2022-10-19T09:16:37;6.55;;;3.22;;
74044;SDS011;62389;51.412;5.436;2022-10-19T09:19:07;7.95;;;3.20;;
74044;SDS011;62389;51.412;5.436;2022-10-19T09:21:45;6.57;;;2.92;;
74044;SDS011;62389;51.412;5.436;2022-10-19T09:24:19;6.07;;;2.72;;
74044;SDS011;62389;51.412;5.436;2022-10-19T09:26:57;5.85;;;2.85;;
74044;SDS011;62389;51.412;5.436;2022-10-19T09:29:27;9.15;;;2.80;;
74044;SDS011;62389;51.412;5.436;2022-10-19T09:32:02;9.63;;;2.60;;
74044;SDS011;62389;51.412;5.436;2022-10-19T09:34:37;8.07;;;3.08;;
74044;SDS011;62389;51.412;5.436;2022-10-19T09:37:07;5.82;;;2.95;;
74044;SDS011;62389;51.412;5.436;2022-10-19T09:39:33;6.75;;;2.55;;
74044;SDS011;62389;51.412;5.436;2022-10-19T09:44:58;9.70;;;3.03;;
74044;SDS011;62389;51.412;5.436;2022-10-19T09:47:35;6.28;;;2.72;;
74044;SDS011;62389;51.412;5.436;2022-10-19T09:52:37;8.15;;;2.25;;
74044;SDS011;62389;51.412;5.436;2022-10-19T09:55:06;5.88;;;2.63;;
74044;SDS011;62389;51.412;5.436;2022-10-19T09:57:57;9.52;;;3.33;;
74044;SDS011;62389;51.412;5.436;2022-10-19T10:02:58;7.63;;;2.65;;
74044;SDS011;62389;51.412;5.436;2022-10-19T10:08:00;7.95;;;2.40;;
74044;SDS011;62389;51.412;5.436;2022-10-19T10:10:27;5.78;;;2.70;;
74044;SDS011;62389;51.412;5.436;2022-10-19T10:13:03;8.20;;;2.97;;
74044;SDS011;62389;51.412;5.436;2022-10-19T10:15:34;9.60;;;3.60;;
74044;SDS011;62389;51.412;5.436;2022-10-19T10:18:09;6.63;;;3.05;;
74044;SDS011;62389;51.412;5.436;2022-10-19T10:20:38;7.65;;;2.85;;
74044;SDS011;62389;51.412;5.436;2022-10-19T10:23:27;8.82;;;2.33;;
74044;SDS011;62389;51.412;5.436;2022-10-19T10:25:56;7.60;;;2.83;;
74044;SDS011;62389;51.412;5.436;2022-10-19T10:28:24;9.30;;;2.97;;
74044;SDS011;62389;51.412;5.436;2022-10-19T10:31:06;5.00;;;2.28;;
74044;SDS011;62389;51.412;5.436;2022-10-19T10:33:34;7.72;;;2.85;;
74044;SDS011;62389;51.412;5.436;2022-10-19T10:36:03;7.30;;;2.78;;
74044;SDS011;62389;51.412;5.436;2022-10-19T10:38:34;9.35;;;2.75;;
74044;SDS011;62389;51.412;5.436;2022-10-19T10:41:03;5.40;;;2.63;;
74044;SDS011;62389;51.412;5.436;2022-10-19T10:43:35;6.78;;;2.50;;
74044;SDS011;62389;51.412;5.436;2022-10-19T10:46:13;6.50;;;2.45;;
74044;SDS011;62389;51.412;5.436;2022-10-19T10:48:44;7.53;;;2.72;;
74044;SDS011;62389;51.412;5.436;2022-10-19T10:53:47;6.80;;;3.15;;
74044;SDS011;62389;51.412;5.436;2022-10-19T10:58:58;7.10;;;2.85;;
74044;SDS011;62389;51.412;5.436;2022-10-19T11:01:29;5.68;;;2.60;;
74044;SDS011;62389;51.412;5.436;2022-10-19T11:04:04;8.60;;;3.10;;
74044;SDS011;62389;51.412;5.436;2022-10-19T11:06:35;12.05;;;2.72;;
74044;SDS011;62389;51.412;5.436;2022-10-19T11:11:38;6.65;;;2.70;;
74044;SDS011;62389;51.412;5.436;2022-10-19T11:14:13;10.88;;;3.10;;
74044;SDS011;62389;51.412;5.436;2022-10-19T11:16:40;7.07;;;2.60;;
74044;SDS011;62389;51.412;5.436;2022-10-19T11:19:19;6.22;;;2.65;;
74044;SDS011;62389;51.412;5.436;2022-10-19T11:21:56;6.80;;;3.10;;
74044;SDS011;62389;51.412;5.436;2022-10-19T11:24:38;7.00;;;2.92;;
74044;SDS011;62389;51.412;5.436;2022-10-19T11:32:45;10.07;;;3.45;;
74044;SDS011;62389;51.412;5.436;2022-10-19T11:41:28;6.55;;;3.67;;
74044;SDS011;62389;51.412;5.436;2022-10-19T11:44:22;15.70;;;3.55;;
74044;SDS011;62389;51.412;5.436;2022-10-19T11:52:33;7.95;;;2.72;;
74044;SDS011;62389;51.412;5.436;2022-10-19T12:00:40;7.72;;;2.35;;
74044;SDS011;62389;51.412;5.436;2022-10-19T12:08:56;5.40;;;2.28;;
74044;SDS011;62389;51.412;5.436;2022-10-19T12:14:12;4.90;;;2.55;;
74044;SDS011;62389;51.412;5.436;2022-10-19T12:16:42;5.80;;;2.25;;
74044;SDS011;62389;51.412;5.436;2022-10-19T12:19:14;6.75;;;2.30;;
74044;SDS011;62389;51.412;5.436;2022-10-19T12:21:44;7.13;;;2.55;;
74044;SDS011;62389;51.412;5.436;2022-10-19T12:24:17;9.52;;;2.55;;
74044;SDS011;62389;51.412;5.436;2022-10-19T12:26:46;6.10;;;2.15;;
74044;SDS011;62389;51.412;5.436;2022-10-19T12:29:22;4.50;;;2.03;;
74044;SDS011;62389;51.412;5.436;2022-10-19T12:31:49;3.25;;;1.90;;
74044;SDS011;62389;51.412;5.436;2022-10-19T12:48:19;7.75;;;2.45;;
74044;SDS011;62389;51.412;5.436;2022-10-19T12:53:34;5.53;;;2.05;;
74044;SDS011;62389;51.412;5.436;2022-10-19T12:56:44;7.55;;;1.70;;
74044;SDS011;62389;51.412;5.436;2022-10-19T13:01:46;6.88;;;2.00;;
74044;SDS011;62389;51.412;5.436;2022-10-19T13:04:15;5.05;;;1.80;;
74044;SDS011;62389;51.412;5.436;2022-10-19T13:09:33;5.47;;;1.67;;
74044;SDS011;62389;51.412;5.436;2022-10-19T13:14:40;7.88;;;1.98;;
74044;SDS011;62389;51.412;5.436;2022-10-19T13:17:45;6.88;;;2.40;;
74044;SDS011;62389;51.412;5.436;2022-10-19T13:35:48;6.47;;;2.22;;
74044;SDS011;62389;51.412;5.436;2022-10-19T13:41:01;4.55;;;1.90;;
74044;SDS011;62389;51.412;5.436;2022-10-19T13:43:37;4.78;;;1.77;;
74044;SDS011;62389;51.412;5.436;2022-10-19T13:59:48;7.80;;;2.47;;
74044;SDS011;62389;51.412;5.436;2022-10-19T14:08:23;7.32;;;2.10;;
74044;SDS011;62389;51.412;5.436;2022-10-19T14:11:10;5.43;;;1.83;;
74044;SDS011;62389;51.412;5.436;2022-10-19T14:13:39;7.10;;;2.05;;
74044;SDS011;62389;51.412;5.436;2022-10-19T14:16:04;6.18;;;1.90;;
74044;SDS011;62389;51.412;5.436;2022-10-19T14:18:31;4.53;;;1.80;;
74044;SDS011;62389;51.412;5.436;2022-10-19T14:21:00;5.90;;;1.83;;
74044;SDS011;62389;51.412;5.436;2022-10-19T14:23:31;4.22;;;2.00;;
74044;SDS011;62389;51.412;5.436;2022-10-19T14:28:34;6.05;;;1.52;;
74044;SDS011;62389;51.412;5.436;2022-10-19T14:31:07;4.45;;;2.17;;
74044;SDS011;62389;51.412;5.436;2022-10-19T14:33:35;9.90;;;2.00;;
74044;SDS011;62389;51.412;5.436;2022-10-19T14:36:06;6.55;;;2.05;;
74044;SDS011;62389;51.412;5.436;2022-10-19T14:38:40;5.93;;;1.50;;
74044;SDS011;62389;51.412;5.436;2022-10-19T14:41:16;6.85;;;2.00;;
74044;SDS011;62389;51.412;5.436;2022-10-19T14:43:44;3.80;;;1.88;;
74044;SDS011;62389;51.412;5.436;2022-10-19T14:46:11;6.90;;;1.70;;
74044;SDS011;62389;51.412;5.436;2022-10-19T14:49:20;4.63;;;1.50;;
74044;SDS011;62389;51.412;5.436;2022-10-19T14:54:08;4.78;;;1.90;;
74044;SDS011;62389;51.412;5.436;2022-10-19T14:56:42;2.80;;;1.67;;
74044;SDS011;62389;51.412;5.436;2022-10-19T15:01:57;3.25;;;1.27;;
74044;SDS011;62389;51.412;5.436;2022-10-19T15:04:26;6.05;;;1.67;;
74044;SDS011;62389;51.412;5.436;2022-10-19T15:06:58;3.55;;;1.25;;
74044;SDS011;62389;51.412;5.436;2022-10-19T15:09:34;6.45;;;1.65;;
74044;SDS011;62389;51.412;5.436;2022-10-19T15:12:05;7.05;;;1.80;;
74044;SDS011;62389;51.412;5.436;2022-10-19T15:14:33;9.10;;;1.50;;
74044;SDS011;62389;51.412;5.436;2022-10-19T15:17:01;5.35;;;1.52;;
74044;SDS011;62389;51.412;5.436;2022-10-19T15:19:38;4.13;;;2.00;;
74044;SDS011;62389;51.412;5.436;2022-10-19T15:24:34;7.05;;;1.83;;
74044;SDS011;62389;51.412;5.436;2022-10-19T15:27:17;3.50;;;1.70;;
74044;SDS011;62389;51.412;5.436;2022-10-19T15:29:54;4.68;;;1.40;;
74044;SDS011;62389;51.412;5.436;2022-10-19T15:32:21;5.97;;;1.50;;
74044;SDS011;62389;51.412;5.436;2022-10-19T15:34:49;3.70;;;1.42;;
74044;SDS011;62389;51.412;5.436;2022-10-19T15:37:19;13.88;;;2.50;;
74044;SDS011;62389;51.412;5.436;2022-10-19T15:39:46;3.17;;;1.20;;
74044;SDS011;62389;51.412;5.436;2022-10-19T15:45:04;4.60;;;2.15;;
74044;SDS011;62389;51.412;5.436;2022-10-19T15:50:44;8.80;;;2.10;;
74044;SDS011;62389;51.412;5.436;2022-10-19T15:53:14;4.38;;;1.50;;
74044;SDS011;62389;51.412;5.436;2022-10-19T15:55:40;4.22;;;1.80;;
74044;SDS011;62389;51.412;5.436;2022-10-19T15:58:07;6.07;;;1.65;;
74044;SDS011;62389;51.412;5.436;2022-10-19T16:00:34;6.93;;;1.70;;
74044;SDS011;62389;51.412;5.436;2022-10-19T16:02:59;4.53;;;1.63;;
74044;SDS011;62389;51.412;5.436;2022-10-19T16:05:24;4.13;;;1.50;;
74044;SDS011;62389;51.412;5.436;2022-10-19T16:07:50;3.90;;;1.80;;
74044;SDS011;62389;51.412;5.436;2022-10-19T16:10:18;4.07;;;1.40;;
74044;SDS011;62389;51.412;5.436;2022-10-19T16:12:45;5.13;;;1.50;;
74044;SDS011;62389;51.412;5.436;2022-10-19T16:15:11;4.72;;;1.80;;
74044;SDS011;62389;51.412;5.436;2022-10-19T16:17:37;7.75;;;2.33;;
74044;SDS011;62389;51.412;5.436;2022-10-19T16:20:04;6.72;;;2.22;;
74044;SDS011;62389;51.412;5.436;2022-10-19T16:22:30;5.90;;;1.90;;
74044;SDS011;62389;51.412;5.436;2022-10-19T16:24:56;5.93;;;1.80;;
74044;SDS011;62389;51.412;5.436;2022-10-19T16:27:21;6.03;;;2.00;;
74044;SDS011;62389;51.412;5.436;2022-10-19T16:29:46;10.88;;;1.85;;
74044;SDS011;62389;51.412;5.436;2022-10-19T16:32:12;5.70;;;2.40;;
74044;SDS011;62389;51.412;5.436;2022-10-19T16:34:37;4.88;;;1.67;;
74044;SDS011;62389;51.412;5.436;2022-10-19T16:37:02;6.95;;;2.28;;
74044;SDS011;62389;51.412;5.436;2022-10-19T16:39:28;4.32;;;1.98;;
74044;SDS011;62389;51.412;5.436;2022-10-19T16:41:53;5.78;;;2.00;;
74044;SDS011;62389;51.412;5.436;2022-10-19T16:44:18;6.35;;;2.50;;
74044;SDS011;62389;51.412;5.436;2022-10-19T16:46:44;6.72;;;2.25;;
74044;SDS011;62389;51.412;5.436;2022-10-19T16:49:09;5.35;;;2.15;;
74044;SDS011;62389;51.412;5.436;2022-10-19T16:51:38;7.68;;;3.03;;
74044;SDS011;62389;51.412;5.436;2022-10-19T16:54:05;5.40;;;2.78;;
74044;SDS011;62389;51.412;5.436;2022-10-19T16:56:33;5.45;;;2.33;;
74044;SDS011;62389;51.412;5.436;2022-10-19T16:59:00;5.97;;;2.30;;
74044;SDS011;62389;51.412;5.436;2022-10-19T17:01:28;7.13;;;3.03;;
74044;SDS011;62389;51.412;5.436;2022-10-19T17:03:54;5.35;;;2.38;;
74044;SDS011;62389;51.412;5.436;2022-10-19T17:06:20;5.63;;;2.83;;
74044;SDS011;62389;51.412;5.436;2022-10-19T17:08:46;5.93;;;2.50;;
74044;SDS011;62389;51.412;5.436;2022-10-19T17:11:19;9.40;;;2.55;;
74044;SDS011;62389;51.412;5.436;2022-10-19T17:13:47;5.20;;;2.92;;
74044;SDS011;62389;51.412;5.436;2022-10-19T17:16:15;9.93;;;2.85;;
74044;SDS011;62389;51.412;5.436;2022-10-19T17:18:41;8.27;;;2.65;;
74044;SDS011;62389;51.412;5.436;2022-10-19T17:21:14;9.60;;;3.17;;
74044;SDS011;62389;51.412;5.436;2022-10-19T17:23:41;6.90;;;2.65;;
74044;SDS011;62389;51.412;5.436;2022-10-19T17:26:08;10.05;;;3.35;;
74044;SDS011;62389;51.412;5.436;2022-10-19T17:28:34;6.57;;;2.95;;
74044;SDS011;62389;51.412;5.436;2022-10-19T17:31:04;6.38;;;2.95;;
74044;SDS011;62389;51.412;5.436;2022-10-19T17:33:32;12.77;;;3.45;;
74044;SDS011;62389;51.412;5.436;2022-10-19T17:36:42;9.23;;;2.85;;